createdAt,value
2018-12-29T00:01:57.449Z,34.13
2018-12-29T00:04:25.833Z,35.37
2018-12-29T00:06:54.623Z,33.20
2018-12-29T00:09:23.503Z,35.30
2018-12-29T00:11:51.897Z,35.10
2018-12-29T00:14:20.679Z,34.20
2018-12-29T00:16:49.076Z,35.77
2018-12-29T00:19:17.466Z,35.23
2018-12-29T00:21:46.050Z,35.03
2018-12-29T00:24:14.811Z,34.70
2018-12-29T00:26:43.202Z,35.73
2018-12-29T00:29:11.975Z,35.40
2018-12-29T00:31:40.372Z,35.63
2018-12-29T00:34:08.834Z,35.33
2018-12-29T00:36:37.435Z,35.83
2018-12-29T00:39:06.586Z,36.17
2018-12-29T00:41:35.118Z,37.07
2018-12-29T00:44:03.507Z,35.00
2018-12-29T00:46:31.892Z,35.90
2018-12-29T00:49:00.295Z,34.47
2018-12-29T00:51:28.924Z,34.70
2018-12-29T00:53:57.337Z,33.67
2018-12-29T00:56:26.109Z,37.07
2018-12-29T00:58:54.491Z,33.63
2018-12-29T01:01:22.893Z,32.17
2018-12-29T01:03:51.272Z,33.93
2018-12-29T01:06:19.662Z,35.27
2018-12-29T01:08:48.058Z,34.60
2018-12-29T01:11:16.444Z,35.33
2018-12-29T01:13:44.841Z,35.90
2018-12-29T01:16:13.230Z,35.77
2018-12-29T01:18:42.015Z,35.03
2018-12-29T01:21:11.314Z,32.87
2018-12-29T01:23:39.978Z,34.30
2018-12-29T01:26:08.383Z,33.70
2018-12-29T01:28:37.173Z,34.50
2018-12-29T01:31:05.876Z,35.43
2018-12-29T01:33:34.547Z,35.93
2018-12-29T01:36:03.012Z,34.80
2018-12-29T01:38:31.390Z,34.70
2018-12-29T01:41:00.014Z,34.07
2018-12-29T01:43:28.405Z,36.93
2018-12-29T01:45:57.154Z,33.93
2018-12-29T01:48:25.843Z,33.67
2018-12-29T01:50:54.225Z,35.00
2018-12-29T01:53:23.003Z,35.70
2018-12-29T01:55:51.409Z,34.37
2018-12-29T01:58:19.995Z,33.80
2018-12-29T02:00:48.380Z,33.43
2018-12-29T02:03:16.763Z,34.23
2018-12-29T02:05:45.158Z,35.00
2018-12-29T02:08:13.540Z,34.83
2018-12-29T02:10:42.161Z,35.80
2018-12-29T02:13:10.571Z,36.23
2018-12-29T02:15:38.954Z,35.67
2018-12-29T02:18:07.331Z,33.40
2018-12-29T02:20:35.735Z,36.13
2018-12-29T02:23:04.378Z,34.00
2018-12-29T02:25:32.761Z,35.73
2018-12-29T02:28:01.375Z,37.23
2018-12-29T02:30:29.757Z,35.40
2018-12-29T02:32:58.159Z,35.67
2018-12-29T02:35:26.532Z,34.80
2018-12-29T02:37:55.264Z,36.20
2018-12-29T02:40:23.670Z,35.60
2018-12-29T02:42:52.429Z,35.80
2018-12-29T02:45:20.825Z,36.10
2018-12-29T02:47:49.631Z,36.57
2018-12-29T02:50:18.284Z,37.50
2018-12-29T02:52:46.985Z,39.03
2018-12-29T02:55:15.357Z,37.23
2018-12-29T02:57:43.739Z,37.03
2018-12-29T03:00:12.306Z,37.00
2018-12-29T03:02:40.702Z,36.43
2018-12-29T03:05:09.098Z,37.37
2018-12-29T03:07:38.066Z,36.00
2018-12-29T03:10:06.453Z,37.00
2018-12-29T03:12:34.855Z,36.47
2018-12-29T03:15:03.254Z,37.23
2018-12-29T03:17:31.987Z,39.53
2018-12-29T03:20:00.458Z,39.43
2018-12-29T03:22:28.847Z,39.97
2018-12-29T03:24:57.844Z,39.67
2018-12-29T03:27:26.558Z,37.63
2018-12-29T03:29:54.944Z,38.77
2018-12-29T03:32:23.710Z,38.97
2018-12-29T03:34:52.106Z,38.67
2018-12-29T03:37:20.485Z,42.70
2018-12-29T03:39:49.071Z,37.47
2018-12-29T03:42:17.744Z,38.67
2018-12-29T03:44:46.129Z,40.60
2018-12-29T03:47:14.529Z,38.20
2018-12-29T03:49:42.913Z,41.43
2018-12-29T03:52:11.304Z,39.50
2018-12-29T03:54:39.952Z,40.90
2018-12-29T03:57:08.712Z,42.10
2018-12-29T03:59:37.415Z,40.10
2018-12-29T04:02:06.132Z,40.43
2018-12-29T04:04:34.516Z,41.63
2018-12-29T04:07:03.258Z,43.60
2018-12-29T04:09:33.494Z,41.17
2018-12-29T04:12:05.146Z,43.70
2018-12-29T04:14:36.016Z,42.10
2018-12-29T04:17:04.763Z,43.27
2018-12-29T04:19:33.159Z,42.20
2018-12-29T04:22:01.545Z,40.20
2018-12-29T04:24:29.976Z,42.27
2018-12-29T04:26:58.668Z,41.07
2018-12-29T04:29:27.369Z,42.27
2018-12-29T04:31:55.757Z,43.03
2018-12-29T04:34:24.142Z,44.37
2018-12-29T04:36:52.541Z,44.17
2018-12-29T04:39:20.925Z,43.97
2018-12-29T04:41:49.314Z,43.07
2018-12-29T04:44:17.910Z,43.27
2018-12-29T04:46:46.291Z,41.60
2018-12-29T04:49:14.683Z,44.90
2018-12-29T04:51:43.081Z,43.47
2018-12-29T04:54:11.469Z,41.30
2018-12-29T04:56:39.877Z,45.07
2018-12-29T04:59:08.265Z,44.90
2018-12-29T05:01:36.942Z,42.50
2018-12-29T05:04:05.319Z,44.10
2018-12-29T05:06:33.708Z,44.10
2018-12-29T05:09:02.458Z,43.63
2018-12-29T05:11:30.923Z,44.20
2018-12-29T05:13:59.308Z,44.13
2018-12-29T05:16:27.894Z,43.50
2018-12-29T05:18:56.581Z,45.60
2018-12-29T05:21:25.122Z,46.20
2018-12-29T05:23:53.506Z,42.53
2018-12-29T05:26:21.888Z,41.60
2018-12-29T05:28:50.360Z,45.70
2018-12-29T05:31:18.991Z,46.70
2018-12-29T05:33:47.376Z,43.70
2018-12-29T05:36:15.774Z,43.67
2018-12-29T05:38:44.167Z,46.77
2018-12-29T05:41:12.551Z,44.07
2018-12-29T05:43:40.954Z,43.07
2018-12-29T05:46:09.371Z,43.77
2018-12-29T05:48:37.931Z,43.90
2018-12-29T05:51:06.313Z,42.30
2018-12-29T05:53:35.120Z,44.57
2018-12-29T05:56:03.809Z,43.50
2018-12-29T05:58:32.208Z,42.93
2018-12-29T06:01:00.593Z,43.07
2018-12-29T06:03:29.252Z,42.97
2018-12-29T06:05:57.635Z,42.70
2018-12-29T06:08:26.014Z,44.17
2018-12-29T06:10:54.414Z,44.03
2018-12-29T06:13:22.796Z,43.87
2018-12-29T06:15:51.456Z,43.63
2018-12-29T06:18:19.858Z,41.10
2018-12-29T06:20:48.624Z,45.03
2018-12-29T06:23:17.534Z,42.23
2018-12-29T06:25:45.921Z,43.00
2018-12-29T06:28:14.306Z,44.33
2018-12-29T06:30:42.705Z,43.23
2018-12-29T06:33:11.440Z,42.03
2018-12-29T06:35:40.131Z,44.23
2018-12-29T06:38:08.517Z,41.10
2018-12-29T06:40:37.120Z,39.93
2018-12-29T06:43:06.795Z,40.80
2018-12-29T06:45:35.186Z,40.97
2018-12-29T06:48:03.585Z,41.87
2018-12-29T06:50:31.979Z,43.83
2018-12-29T06:53:00.362Z,43.47
2018-12-29T06:55:28.765Z,41.10
2018-12-29T06:57:57.150Z,42.90
2018-12-29T07:00:25.539Z,42.20
2018-12-29T07:02:53.946Z,44.13
2018-12-29T07:05:22.333Z,44.50
2018-12-29T07:07:50.715Z,45.37
2018-12-29T07:10:19.113Z,44.20
2018-12-29T07:12:47.496Z,47.30
2018-12-29T07:15:15.896Z,43.97
2018-12-29T07:17:44.277Z,45.40
2018-12-29T07:20:12.994Z,43.57
2018-12-29T07:22:41.380Z,44.37
2018-12-29T07:25:09.782Z,44.77
2018-12-29T07:27:38.436Z,42.90
2018-12-29T07:30:07.984Z,45.70
2018-12-29T07:32:36.551Z,43.43
2018-12-29T07:35:05.301Z,44.90
2018-12-29T07:37:33.694Z,44.97
2018-12-29T07:40:02.095Z,43.03
2018-12-29T07:42:30.549Z,43.87
2018-12-29T07:44:58.931Z,44.60
2018-12-29T07:47:27.329Z,43.17
2018-12-29T07:49:55.997Z,44.90
2018-12-29T07:52:24.379Z,41.73
2018-12-29T07:54:53.164Z,44.63
2018-12-29T07:57:21.563Z,45.40
2018-12-29T07:59:49.943Z,43.73
2018-12-29T08:02:18.328Z,44.70
2018-12-29T08:04:47.119Z,43.40
2018-12-29T08:07:15.688Z,46.10
2018-12-29T08:09:44.075Z,42.30
2018-12-29T08:12:12.471Z,44.43
2018-12-29T08:14:40.859Z,43.63
2018-12-29T08:17:09.249Z,42.37
2018-12-29T08:19:38.005Z,43.53
2018-12-29T08:22:06.399Z,44.00
2018-12-29T08:24:34.852Z,42.90
2018-12-29T08:27:03.419Z,43.70
2018-12-29T08:29:31.815Z,42.83
2018-12-29T08:32:00.587Z,42.73
2018-12-29T08:34:29.261Z,42.70
2018-12-29T08:36:57.672Z,42.10
2018-12-29T08:39:26.056Z,41.10
2018-12-29T08:41:54.500Z,40.13
2018-12-29T08:44:22.896Z,40.37
2018-12-29T08:46:51.283Z,39.60
2018-12-29T08:49:19.682Z,40.97
2018-12-29T08:51:48.067Z,39.50
2018-12-29T08:54:16.449Z,39.50
2018-12-29T08:56:45.026Z,40.57
2018-12-29T08:59:13.885Z,41.60
2018-12-29T09:01:42.382Z,40.97
2018-12-29T09:04:10.779Z,41.30
2018-12-29T09:06:39.182Z,40.70
2018-12-29T09:09:07.584Z,39.87
2018-12-29T09:11:35.983Z,41.80
2018-12-29T09:14:04.373Z,41.03
2018-12-29T09:16:32.780Z,42.60
2018-12-29T09:19:01.464Z,42.20
2018-12-29T09:21:30.132Z,41.83
2018-12-29T09:23:58.520Z,40.87
2018-12-29T09:26:27.008Z,40.97
2018-12-29T09:28:55.395Z,42.10
2018-12-29T09:31:23.911Z,40.77
2018-12-29T09:33:52.623Z,41.03
2018-12-29T09:36:21.428Z,39.87
2018-12-29T09:38:49.867Z,42.57
2018-12-29T09:41:18.256Z,39.97
2018-12-29T09:43:46.691Z,40.00
2018-12-29T09:46:15.083Z,40.57
2018-12-29T09:48:43.473Z,42.27
2018-12-29T09:51:11.875Z,39.83
2018-12-29T09:53:41.292Z,42.70
2018-12-29T09:56:11.216Z,41.93
2018-12-29T09:58:39.904Z,42.40
2018-12-29T10:01:08.611Z,41.67
2018-12-29T10:03:37.008Z,42.40
2018-12-29T10:06:05.392Z,41.40
2018-12-29T10:08:34.030Z,43.10
2018-12-29T10:11:02.724Z,41.50
2018-12-29T10:13:31.108Z,43.70
2018-12-29T10:15:59.507Z,42.33
2018-12-29T10:18:27.887Z,41.80
2018-12-29T10:20:56.345Z,39.87
2018-12-29T10:23:25.116Z,40.53
2018-12-29T10:25:53.506Z,39.40
2018-12-29T10:28:22.068Z,43.67
2018-12-29T10:30:50.817Z,40.57
2018-12-29T10:33:19.165Z,40.57
2018-12-29T10:35:47.639Z,40.17
2018-12-29T10:38:16.030Z,40.50
2018-12-29T10:40:44.696Z,39.57
2018-12-29T10:43:13.079Z,42.00
2018-12-29T10:45:41.568Z,40.83
2018-12-29T10:48:10.367Z,40.67
2018-12-29T10:50:39.043Z,40.10
2018-12-29T10:53:07.769Z,39.73
2018-12-29T10:55:36.424Z,39.00
2018-12-29T10:58:04.807Z,38.60
2018-12-29T11:00:35.205Z,39.57
2018-12-29T11:03:03.459Z,39.30
2018-12-29T11:05:31.881Z,40.90
2018-12-29T11:08:00.674Z,37.40
2018-12-29T11:10:29.056Z,37.70
2018-12-29T11:12:57.677Z,40.30
2018-12-29T11:15:26.084Z,38.70
2018-12-29T11:17:54.463Z,39.60
2018-12-29T11:20:22.837Z,37.67
2018-12-29T11:22:51.234Z,36.87
2018-12-29T11:25:19.730Z,37.60
2018-12-29T11:27:48.422Z,39.60
2018-12-29T11:30:16.823Z,37.90
2018-12-29T11:32:45.440Z,37.40
2018-12-29T11:35:13.822Z,40.83
2018-12-29T11:37:44.072Z,38.00
2018-12-29T11:40:12.409Z,36.10
2018-12-29T11:42:41.235Z,37.20
2018-12-29T11:45:09.642Z,38.23
2018-12-29T11:47:38.401Z,36.67
2018-12-29T11:50:07.920Z,36.53
2018-12-29T11:52:36.304Z,36.17
2018-12-29T11:55:06.086Z,36.33
2018-12-29T11:57:34.473Z,37.30
2018-12-29T12:00:03.016Z,35.87
2018-12-29T12:02:32.354Z,36.17
2018-12-29T12:05:00.812Z,37.97
2018-12-29T12:07:29.523Z,35.27
2018-12-29T12:09:57.908Z,36.37
2018-12-29T12:12:26.289Z,34.63
2018-12-29T12:14:55.169Z,36.10
2018-12-29T12:17:23.556Z,33.90
2018-12-29T12:19:51.940Z,35.27
2018-12-29T12:22:20.615Z,34.53
2018-12-29T12:24:49.010Z,32.57
2018-12-29T12:27:17.562Z,33.67
2018-12-29T12:29:46.322Z,34.30
2018-12-29T12:32:15.909Z,32.30
2018-12-29T12:34:44.307Z,32.47
2018-12-29T12:37:12.699Z,32.07
2018-12-29T12:39:41.455Z,34.50
2018-12-29T12:42:09.857Z,31.80
2018-12-29T12:44:38.235Z,33.07
2018-12-29T12:47:07.099Z,34.57
2018-12-29T12:49:35.496Z,32.93
2018-12-29T12:52:03.881Z,31.47
2018-12-29T12:54:32.270Z,30.50
2018-12-29T12:57:00.667Z,30.37
2018-12-29T12:59:30.095Z,31.93
2018-12-29T13:01:58.487Z,31.60
2018-12-29T13:04:26.874Z,32.07
2018-12-29T13:06:55.975Z,32.17
2018-12-29T13:09:24.412Z,32.67
2018-12-29T13:11:53.101Z,29.10
2018-12-29T13:14:21.697Z,31.20
2018-12-29T13:16:50.196Z,31.13
2018-12-29T13:19:19.160Z,29.50
2018-12-29T13:21:47.556Z,30.57
2018-12-29T13:24:16.103Z,29.90
2018-12-29T13:26:44.827Z,30.53
2018-12-29T13:29:13.222Z,30.60
2018-12-29T13:31:42.186Z,30.90
2018-12-29T13:34:10.568Z,30.60
2018-12-29T13:36:39.422Z,30.50
2018-12-29T13:39:07.952Z,30.73
2018-12-29T13:41:37.551Z,30.20
2018-12-29T13:44:06.852Z,31.57
2018-12-29T13:46:35.549Z,29.47
2018-12-29T13:49:04.050Z,28.07
2018-12-29T13:51:32.708Z,28.00
2018-12-29T13:54:01.112Z,28.73
2018-12-29T13:56:30.287Z,29.43
2018-12-29T13:58:58.677Z,28.20
2018-12-29T14:01:27.148Z,30.17
2018-12-29T14:03:56.873Z,27.87
2018-12-29T14:06:25.411Z,28.77
2018-12-29T14:08:53.812Z,28.23
2018-12-29T14:11:22.281Z,28.63
2018-12-29T14:13:52.262Z,28.23
2018-12-29T14:16:20.771Z,27.13
2018-12-29T14:18:49.253Z,29.70
2018-12-29T14:21:17.962Z,29.07
2018-12-29T14:23:46.379Z,26.23
2018-12-29T14:26:14.760Z,27.90
2018-12-29T14:28:45.518Z,27.83
2018-12-29T14:31:13.257Z,27.40
2018-12-29T14:33:41.665Z,27.93
2018-12-29T14:36:10.281Z,26.67
2018-12-29T14:38:38.738Z,27.40
2018-12-29T14:41:07.454Z,26.60
2018-12-29T14:43:36.691Z,26.40
2018-12-29T14:46:05.142Z,26.90
2018-12-29T14:48:36.093Z,26.17
2018-12-29T14:51:03.650Z,26.57
2018-12-29T14:53:32.236Z,26.63
2018-12-29T14:56:01.909Z,27.40
2018-12-29T14:58:30.418Z,25.27
2018-12-29T15:00:59.134Z,26.97
2018-12-29T15:03:27.510Z,26.07
2018-12-29T15:05:55.906Z,26.67
2018-12-29T15:08:24.772Z,25.63
2018-12-29T15:10:53.164Z,25.70
2018-12-29T15:13:22.653Z,25.40
2018-12-29T15:15:51.051Z,26.60
2018-12-29T15:18:19.818Z,24.77
2018-12-29T15:20:49.133Z,25.00
2018-12-29T15:23:17.783Z,24.33
2018-12-29T15:25:46.456Z,23.40
2018-12-29T15:28:14.847Z,23.60
2018-12-29T15:30:44.042Z,24.77
2018-12-29T15:33:12.469Z,22.13
2018-12-29T15:35:40.831Z,23.13
2018-12-29T15:38:10.302Z,22.77
2018-12-29T15:40:39.003Z,22.13
2018-12-29T15:43:07.387Z,22.67
2018-12-29T15:45:36.201Z,23.67
2018-12-29T15:48:04.555Z,21.87
2018-12-29T15:50:32.945Z,22.87
2018-12-29T15:53:02.727Z,21.50
2018-12-29T15:55:31.134Z,22.83
2018-12-29T15:58:00.008Z,21.80
2018-12-29T16:00:28.468Z,21.57
2018-12-29T16:02:56.846Z,21.93
2018-12-29T16:05:25.243Z,21.20
2018-12-29T16:07:53.905Z,21.70
2018-12-29T16:10:22.306Z,22.40
2018-12-29T16:12:50.694Z,23.60
2018-12-29T16:15:19.785Z,21.87
2018-12-29T16:17:48.485Z,23.80
2018-12-29T16:20:16.955Z,25.10
2018-12-29T16:22:45.631Z,23.03
2018-12-29T16:25:14.012Z,24.87
2018-12-29T16:27:47.454Z,24.17
2018-12-29T16:30:16.202Z,24.67
2018-12-29T16:32:45.069Z,23.50
2018-12-29T16:35:13.551Z,27.10
2018-12-29T16:37:43.401Z,26.23
2018-12-29T16:40:12.994Z,25.83
2018-12-29T16:42:41.473Z,25.17
2018-12-29T16:45:10.027Z,25.93
2018-12-29T16:47:38.406Z,27.27
2018-12-29T16:50:08.621Z,26.30
2018-12-29T16:52:37.398Z,25.83
2018-12-29T16:55:06.440Z,23.80
2018-12-29T16:57:34.884Z,25.33
2018-12-29T17:00:05.174Z,25.00
2018-12-29T17:02:33.843Z,24.00
2018-12-29T17:05:02.411Z,25.47
2018-12-29T17:07:30.819Z,24.50
2018-12-29T17:09:59.355Z,26.10
2018-12-29T17:12:27.752Z,25.83
2018-12-29T17:14:56.447Z,25.33
2018-12-29T17:17:24.925Z,25.13
2018-12-29T17:19:55.463Z,26.37
2018-12-29T17:22:24.153Z,26.20
2018-12-29T17:24:52.571Z,25.43
2018-12-29T17:27:20.980Z,27.27
2018-12-29T17:29:50.042Z,25.73
2018-12-29T17:32:19.049Z,27.50
2018-12-29T17:34:47.437Z,26.83
2018-12-29T17:37:15.822Z,26.93
2018-12-29T17:39:44.933Z,25.70
2018-12-29T17:42:13.377Z,28.13
2018-12-29T17:44:41.786Z,26.70
2018-12-29T17:47:10.163Z,26.67
2018-12-29T17:49:38.549Z,28.60
2018-12-29T17:52:06.939Z,28.37
2018-12-29T17:54:35.335Z,29.50
2018-12-29T17:57:03.865Z,29.80
2018-12-29T17:59:32.260Z,29.40
2018-12-29T18:02:00.877Z,28.57
2018-12-29T18:04:30.148Z,28.20
2018-12-29T18:06:58.538Z,29.63
2018-12-29T18:09:26.942Z,28.83
2018-12-29T18:11:55.912Z,29.20
2018-12-29T18:14:24.698Z,29.80
2018-12-29T18:16:53.398Z,28.37
2018-12-29T18:19:21.799Z,28.13
2018-12-29T18:21:50.192Z,29.57
2018-12-29T18:24:18.591Z,30.23
2018-12-29T18:26:47.001Z,29.40
2018-12-29T18:29:15.816Z,29.90
2018-12-29T18:31:44.496Z,28.60
2018-12-29T18:34:13.194Z,30.27
2018-12-29T18:36:41.870Z,29.03
2018-12-29T18:39:10.329Z,31.20
2018-12-29T18:41:38.725Z,31.10
2018-12-29T18:44:07.597Z,31.10
2018-12-29T18:46:36.209Z,32.30
2018-12-29T18:49:04.672Z,32.23
2018-12-29T18:51:33.058Z,32.70
2018-12-29T18:54:01.863Z,32.00
2018-12-29T18:56:30.943Z,34.57
2018-12-29T18:58:59.630Z,32.27
2018-12-29T19:01:28.087Z,34.20
2018-12-29T19:03:56.491Z,36.67
2018-12-29T19:06:24.875Z,36.10
2018-12-29T19:08:53.562Z,35.90
2018-12-29T19:11:22.064Z,37.60
2018-12-29T19:13:50.583Z,36.60
2018-12-29T19:16:19.644Z,37.37
2018-12-29T19:18:48.046Z,38.40
2018-12-29T19:21:17.605Z,37.53
2018-12-29T19:23:47.714Z,38.73
2018-12-29T19:26:16.481Z,38.87
2018-12-29T19:28:45.159Z,39.57
2018-12-29T19:31:14.420Z,39.40
2018-12-29T19:33:43.115Z,39.80
2018-12-29T19:36:11.771Z,40.90
2018-12-29T19:38:40.186Z,38.70
2018-12-29T19:41:08.942Z,39.60
2018-12-29T19:43:37.642Z,39.63
2018-12-29T19:46:06.540Z,40.70
2018-12-29T19:48:34.945Z,38.90
2018-12-29T19:51:03.361Z,42.43
2018-12-29T19:53:32.232Z,40.90
2018-12-29T19:56:00.629Z,42.17
2018-12-29T19:58:29.406Z,43.17
2018-12-29T20:00:57.839Z,41.07
2018-12-29T20:03:26.539Z,41.70
2018-12-29T20:05:54.916Z,42.43
2018-12-29T20:08:23.394Z,44.07
2018-12-29T20:10:52.204Z,40.77
2018-12-29T20:13:20.663Z,42.93
2018-12-29T20:15:49.063Z,41.93
2018-12-29T20:18:17.860Z,42.13
2018-12-29T20:20:46.282Z,43.37
2018-12-29T20:23:15.345Z,45.53
2018-12-29T20:25:43.747Z,43.87
2018-12-29T20:28:12.177Z,43.03
2018-12-29T20:30:41.511Z,44.17
2018-12-29T20:33:09.993Z,42.10
2018-12-29T20:35:38.855Z,45.90
2018-12-29T20:38:07.830Z,43.67
2018-12-29T20:40:36.792Z,43.20
2018-12-29T20:43:05.510Z,43.27
2018-12-29T20:45:33.944Z,45.53
2018-12-29T20:48:02.357Z,47.90
2018-12-29T20:50:31.569Z,46.03
2018-12-29T20:53:00.129Z,42.97
2018-12-29T20:55:28.530Z,43.03
2018-12-29T20:57:57.239Z,45.30
2018-12-29T21:00:25.801Z,46.50
2018-12-29T21:02:54.829Z,44.43
2018-12-29T21:05:23.225Z,42.20
2018-12-29T21:07:51.968Z,43.87
2018-12-29T21:10:20.411Z,42.37
2018-12-29T21:12:48.874Z,42.97
2018-12-29T21:15:18.036Z,42.33
2018-12-29T21:17:46.728Z,42.27
2018-12-29T21:20:17.450Z,42.23
2018-12-29T21:22:45.445Z,42.30
2018-12-29T21:25:14.027Z,41.27
2018-12-29T21:27:42.505Z,39.83
2018-12-29T21:30:11.566Z,39.70
2018-12-29T21:32:40.840Z,41.10
2018-12-29T21:35:09.224Z,40.10
2018-12-29T21:37:37.826Z,40.40
2018-12-29T21:40:06.235Z,38.60
2018-12-29T21:42:37.087Z,40.23
2018-12-29T21:45:06.125Z,38.43
2018-12-29T21:47:34.804Z,37.07
2018-12-29T21:50:03.193Z,36.40
2018-12-29T21:52:31.584Z,35.70
2018-12-29T21:55:00.655Z,33.57
2018-12-29T21:57:29.752Z,31.40
2018-12-29T21:59:58.480Z,30.13
2018-12-29T22:02:26.900Z,31.17
2018-12-29T22:04:55.604Z,27.43
2018-12-29T22:07:23.996Z,24.27
2018-12-29T22:09:53.099Z,24.70
2018-12-29T22:12:21.486Z,21.23
2018-12-29T22:14:49.874Z,23.03
2018-12-29T22:17:18.273Z,21.17
2018-12-29T22:19:46.658Z,20.53
2018-12-29T22:22:15.066Z,21.73
2018-12-29T22:24:44.134Z,20.53
2018-12-29T22:27:12.963Z,18.10
2018-12-29T22:29:41.478Z,18.23
2018-12-29T22:32:09.870Z,18.63
2018-12-29T22:34:39.233Z,19.40
2018-12-29T22:37:07.912Z,16.83
2018-12-29T22:39:36.672Z,18.30
2018-12-29T22:42:05.145Z,16.83
2018-12-29T22:44:33.532Z,16.03
2018-12-29T22:47:01.982Z,18.67
2018-12-29T22:49:30.381Z,17.70
2018-12-29T22:51:59.040Z,16.90
2018-12-29T22:54:27.687Z,17.60
2018-12-29T22:56:56.093Z,17.37
2018-12-29T22:59:24.475Z,17.30
2018-12-29T23:01:52.929Z,17.40
2018-12-29T23:04:21.855Z,17.53
2018-12-29T23:06:50.239Z,16.13
2018-12-29T23:09:18.614Z,16.43
2018-12-29T23:11:47.334Z,14.33
2018-12-29T23:14:16.154Z,15.60
2018-12-29T23:16:44.534Z,14.20
2018-12-29T23:19:12.965Z,15.50
2018-12-29T23:21:41.362Z,14.43
2018-12-29T23:24:09.937Z,13.50
2018-12-29T23:26:38.378Z,13.80
2018-12-29T23:29:07.892Z,13.83
2018-12-29T23:31:36.553Z,13.70
2018-12-29T23:34:04.936Z,13.03
2018-12-29T23:36:34.128Z,14.30
2018-12-29T23:39:02.513Z,13.37
2018-12-29T23:41:30.907Z,13.00
2018-12-29T23:43:59.299Z,13.10
2018-12-29T23:46:27.689Z,14.13
2018-12-29T23:48:56.072Z,12.90
2018-12-29T23:51:24.482Z,12.77
2018-12-29T23:53:52.944Z,12.67
2018-12-29T23:56:22.004Z,13.47
2018-12-29T23:58:50.556Z,12.23
